createdAt,value
2023-01-17T00:00:32.756Z,98326.78
2023-01-17T00:02:59.370Z,98321.63
2023-01-17T00:05:44.182Z,98321.63
2023-01-17T00:08:31.071Z,98333.59
2023-01-17T00:10:58.357Z,98334.41
2023-01-17T00:13:24.877Z,98339.53
2023-01-17T00:15:51.444Z,98338.59
2023-01-17T00:18:17.894Z,98343.88
2023-01-17T00:21:02.895Z,98348.06
2023-01-17T00:23:41.094Z,98349.09
2023-01-17T00:26:16.841Z,98361.94
2023-01-17T00:28:44.390Z,98357.69
2023-01-17T00:31:13.347Z,98364.03
2023-01-17T00:33:39.842Z,98371.09
2023-01-17T00:36:07.154Z,98370.44
2023-01-17T00:38:35.832Z,98387.34
2023-01-17T00:41:05.325Z,98384.28
2023-01-17T00:43:50.653Z,98400.88
2023-01-17T00:46:36.014Z,98397.91
2023-01-17T00:49:21.150Z,98417.31
2023-01-17T00:52:05.904Z,98421.50
2023-01-17T00:54:51.022Z,98431.44
2023-01-17T00:57:36.235Z,98431.63
2023-01-17T01:00:22.213Z,98428.75
2023-01-17T01:03:07.051Z,98437.34
2023-01-17T01:05:51.760Z,98433.06
2023-01-17T01:08:48.301Z,98431.00
2023-01-17T01:11:39.705Z,98426.69
2023-01-17T01:14:26.585Z,98426.50
2023-01-17T01:17:11.523Z,98438.59
2023-01-17T01:19:56.202Z,98436.75
2023-01-17T01:22:41.054Z,98437.34
2023-01-17T01:25:26.270Z,98448.44
2023-01-17T01:28:10.991Z,98450.00
2023-01-17T01:30:55.742Z,98450.06
2023-01-17T01:33:22.108Z,98448.63
2023-01-17T01:35:53.764Z,98444.56
2023-01-17T01:38:23.637Z,98448.94
2023-01-17T01:40:52.740Z,98456.72
2023-01-17T01:43:38.524Z,98459.34
2023-01-17T01:46:05.832Z,98461.28
2023-01-17T01:48:47.594Z,98469.06
2023-01-17T01:51:19.503Z,98472.63
2023-01-17T01:53:49.037Z,98478.72
2023-01-17T01:56:16.525Z,98485.66
2023-01-17T01:58:47.455Z,98484.84
2023-01-17T02:01:15.323Z,98490.72
2023-01-17T02:03:42.572Z,98493.13
2023-01-17T02:06:20.746Z,98500.56
2023-01-17T02:08:48.154Z,98500.31
2023-01-17T02:11:15.111Z,98514.56
2023-01-17T02:13:42.841Z,98521.28
2023-01-17T02:16:25.981Z,98526.22
2023-01-17T02:19:25.729Z,98533.03
2023-01-17T02:22:12.732Z,98536.59
2023-01-17T02:25:06.844Z,98532.28
2023-01-17T02:27:51.938Z,98533.16
2023-01-17T02:30:49.571Z,98538.41
2023-01-17T02:33:31.714Z,98548.56
2023-01-17T02:36:10.131Z,98544.69
2023-01-17T02:38:52.021Z,98549.00
2023-01-17T02:41:20.899Z,98549.94
2023-01-17T02:43:50.111Z,98550.94
2023-01-17T02:46:16.593Z,98552.75
2023-01-17T02:48:43.942Z,98558.00
2023-01-17T02:51:44.987Z,98558.13
2023-01-17T02:54:11.276Z,98559.44
2023-01-17T02:57:02.674Z,98549.38
2023-01-17T02:59:53.703Z,98558.94
2023-01-17T03:02:46.192Z,98556.44
2023-01-17T03:05:15.161Z,98567.38
2023-01-17T03:07:44.224Z,98562.25
2023-01-17T03:10:13.231Z,98565.72
2023-01-17T03:12:40.571Z,98576.97
2023-01-17T03:15:11.834Z,98576.06
2023-01-17T03:17:40.198Z,98573.41
2023-01-17T03:20:07.176Z,98577.63
2023-01-17T03:22:33.560Z,98575.06
2023-01-17T03:25:00.013Z,98578.47
2023-01-17T03:27:26.408Z,98584.41
2023-01-17T03:29:52.866Z,98592.84
2023-01-17T03:32:19.279Z,98594.59
2023-01-17T03:34:45.674Z,98593.91
2023-01-17T03:37:12.138Z,98595.91
2023-01-17T03:39:38.521Z,98596.19
2023-01-17T03:42:04.962Z,98601.50
2023-01-17T03:44:31.347Z,98596.69
2023-01-17T03:46:57.702Z,98597.72
2023-01-17T03:49:24.203Z,98600.53
2023-01-17T03:51:50.641Z,98603.22
2023-01-17T03:54:17.009Z,98601.81
2023-01-17T03:56:43.594Z,98606.19
2023-01-17T03:59:12.984Z,98602.13
2023-01-17T04:01:39.680Z,98607.38
2023-01-17T04:04:06.164Z,98610.09
2023-01-17T04:06:32.689Z,98613.72
2023-01-17T04:08:59.047Z,98607.84
2023-01-17T04:11:25.456Z,98619.81
2023-01-17T04:13:51.888Z,98621.63
2023-01-17T04:16:19.102Z,98625.13
2023-01-17T04:18:45.658Z,98626.06
2023-01-17T04:21:12.061Z,98638.09
2023-01-17T04:23:38.575Z,98638.88
2023-01-17T04:26:05.367Z,98638.78
2023-01-17T04:28:31.884Z,98632.00
2023-01-17T04:31:00.598Z,98634.72
2023-01-17T04:33:27.103Z,98628.91
2023-01-17T04:35:54.324Z,98628.16
2023-01-17T04:38:21.298Z,98629.06
2023-01-17T04:40:48.611Z,98623.19
2023-01-17T04:43:15.927Z,98626.56
2023-01-17T04:45:42.307Z,98617.22
2023-01-17T04:48:12.510Z,98612.94
2023-01-17T04:50:39.904Z,98611.91
2023-01-17T04:53:06.314Z,98611.81
2023-01-17T04:55:32.838Z,98618.44
2023-01-17T04:57:59.258Z,98614.06
2023-01-17T05:00:25.711Z,98617.44
2023-01-17T05:02:52.191Z,98617.63
2023-01-17T05:05:18.726Z,98622.03
2023-01-17T05:07:53.280Z,98620.47
2023-01-17T05:10:19.637Z,98617.22
2023-01-17T05:12:56.777Z,98619.88
2023-01-17T05:15:24.228Z,98626.84
2023-01-17T05:17:52.265Z,98627.91
2023-01-17T05:20:20.084Z,98627.19
2023-01-17T05:22:55.366Z,98633.25
2023-01-17T05:25:26.729Z,98635.94
2023-01-17T05:27:53.455Z,98642.94
2023-01-17T05:30:20.932Z,98637.13
2023-01-17T05:32:51.919Z,98629.44
2023-01-17T05:35:24.223Z,98627.03
2023-01-17T05:37:51.315Z,98634.84
2023-01-17T05:40:31.930Z,98644.25
2023-01-17T05:42:59.551Z,98646.94
2023-01-17T05:45:28.284Z,98651.34
2023-01-17T05:47:56.609Z,98654.84
2023-01-17T05:50:29.805Z,98662.59
2023-01-17T05:52:58.568Z,98655.81
2023-01-17T05:55:27.140Z,98661.75
2023-01-17T05:57:54.042Z,98667.63
2023-01-17T06:00:21.473Z,98673.47
2023-01-17T06:02:48.352Z,98674.97
2023-01-17T06:05:15.700Z,98679.28
2023-01-17T06:07:46.313Z,98684.41
2023-01-17T06:10:17.228Z,98677.75
2023-01-17T06:12:45.236Z,98683.84
2023-01-17T06:15:13.224Z,98685.56
2023-01-17T06:17:39.664Z,98683.84
2023-01-17T06:20:08.453Z,98683.00
2023-01-17T06:22:35.259Z,98681.28
2023-01-17T06:25:01.856Z,98681.19
2023-01-17T06:27:28.501Z,98683.69
2023-01-17T06:29:55.099Z,98685.16
2023-01-17T06:32:21.625Z,98684.19
2023-01-17T06:34:48.065Z,98684.25
2023-01-17T06:37:14.435Z,98680.91
2023-01-17T06:39:40.853Z,98692.06
2023-01-17T06:42:07.219Z,98685.97
2023-01-17T06:44:33.710Z,98682.44
2023-01-17T06:47:00.147Z,98693.50
2023-01-17T06:49:26.572Z,98695.41
2023-01-17T06:51:52.967Z,98695.66
2023-01-17T06:54:19.501Z,98691.59
2023-01-17T06:56:45.958Z,98696.81
2023-01-17T06:59:12.362Z,98694.41
2023-01-17T07:01:38.874Z,98699.59
2023-01-17T07:04:05.443Z,98694.63
2023-01-17T07:06:31.901Z,98702.41
2023-01-17T07:08:59.072Z,98700.00
2023-01-17T07:11:27.267Z,98706.91
2023-01-17T07:13:54.037Z,98703.66
2023-01-17T07:16:20.646Z,98698.59
2023-01-17T07:18:47.117Z,98707.19
2023-01-17T07:21:14.989Z,98708.09
2023-01-17T07:23:41.672Z,98700.47
2023-01-17T07:26:08.248Z,98704.84
2023-01-17T07:28:34.772Z,98707.44
2023-01-17T07:31:08.429Z,98711.75
2023-01-17T07:33:35.118Z,98713.66
2023-01-17T07:36:07.401Z,98712.00
2023-01-17T07:38:34.271Z,98722.38
2023-01-17T07:41:00.774Z,98716.41
2023-01-17T07:43:27.710Z,98723.25
2023-01-17T07:45:54.340Z,98719.94
2023-01-17T07:48:24.021Z,98715.63
2023-01-17T07:50:54.784Z,98726.78
2023-01-17T07:53:23.554Z,98723.47
2023-01-17T07:55:49.992Z,98720.13
2023-01-17T07:58:16.529Z,98724.34
2023-01-17T08:00:44.720Z,98722.75
2023-01-17T08:03:17.411Z,98726.06
2023-01-17T08:05:53.566Z,98731.25
2023-01-17T08:08:20.241Z,98735.47
2023-01-17T08:10:47.130Z,98738.03
2023-01-17T08:13:13.553Z,98739.78
2023-01-17T08:15:40.033Z,98738.09
2023-01-17T08:18:06.557Z,98735.47
2023-01-17T08:20:33.078Z,98737.13
2023-01-17T08:22:59.640Z,98736.31
2023-01-17T08:25:26.583Z,98732.00
2023-01-17T08:27:57.488Z,98739.69
2023-01-17T08:30:24.668Z,98738.03
2023-01-17T08:32:51.258Z,98738.84
2023-01-17T08:35:19.815Z,98744.78
2023-01-17T08:37:46.993Z,98743.91
2023-01-17T08:40:17.177Z,98743.88
2023-01-17T08:42:44.244Z,98744.63
2023-01-17T08:45:11.948Z,98747.97
2023-01-17T08:47:38.432Z,98747.97
2023-01-17T08:50:06.838Z,98753.06
2023-01-17T08:52:33.764Z,98754.78
2023-01-17T08:55:00.225Z,98759.00
2023-01-17T08:57:26.762Z,98756.38
2023-01-17T08:59:53.200Z,98759.69
2023-01-17T09:02:19.954Z,98766.50
2023-01-17T09:04:50.196Z,98765.53
2023-01-17T09:07:19.274Z,98762.75
2023-01-17T09:09:46.347Z,98764.38
2023-01-17T09:12:12.839Z,98771.91
2023-01-17T09:14:39.293Z,98773.56
2023-01-17T09:17:07.059Z,98774.31
2023-01-17T09:19:35.412Z,98778.41
2023-01-17T09:22:04.056Z,98782.59
2023-01-17T09:24:31.076Z,98780.03
2023-01-17T09:26:57.420Z,98781.38
2023-01-17T09:29:23.818Z,98774.88
2023-01-17T09:31:50.231Z,98779.59
2023-01-17T09:34:18.559Z,98780.16
2023-01-17T09:36:45.042Z,98784.16
2023-01-17T09:39:14.413Z,98786.81
2023-01-17T09:42:18.625Z,98788.47
2023-01-17T09:44:53.233Z,98788.41
2023-01-17T09:47:37.347Z,98792.34
2023-01-17T09:50:37.445Z,98801.00
2023-01-17T09:53:13.987Z,98795.94
2023-01-17T09:55:48.744Z,98799.19
2023-01-17T09:58:28.130Z,98801.31
2023-01-17T10:01:21.526Z,98806.38
2023-01-17T10:04:40.302Z,98802.81
2023-01-17T10:07:25.026Z,98810.28
2023-01-17T10:10:20.789Z,98810.81
2023-01-17T10:12:57.491Z,98806.44
2023-01-17T10:16:06.520Z,98812.75
2023-01-17T10:18:46.694Z,98810.53
2023-01-17T10:21:37.417Z,98819.00
2023-01-17T10:24:18.354Z,98813.66
2023-01-17T10:26:48.564Z,98812.59
2023-01-17T10:29:20.188Z,98810.94
2023-01-17T10:31:58.611Z,98810.88
2023-01-17T10:34:40.268Z,98817.59
2023-01-17T10:37:45.154Z,98817.53
2023-01-17T10:40:17.697Z,98816.91
2023-01-17T10:43:09.995Z,98817.88
2023-01-17T10:45:52.845Z,98817.34
2023-01-17T10:48:43.310Z,98821.78
2023-01-17T10:51:21.856Z,98820.16
2023-01-17T10:54:19.309Z,98817.34
2023-01-17T10:56:45.962Z,98816.31
2023-01-17T10:59:24.326Z,98823.69
2023-01-17T11:01:51.409Z,98818.28
2023-01-17T11:04:21.470Z,98816.13
2023-01-17T11:07:10.470Z,98814.25
2023-01-17T11:09:39.916Z,98823.84
2023-01-17T11:12:18.626Z,98823.06
2023-01-17T11:15:00.982Z,98819.84
2023-01-17T11:17:28.606Z,98822.94
2023-01-17T11:20:29.407Z,98817.19
2023-01-17T11:23:17.629Z,98821.72
2023-01-17T11:25:55.456Z,98819.53
2023-01-17T11:28:26.086Z,98820.81
2023-01-17T11:31:16.593Z,98813.50
2023-01-17T11:33:53.794Z,98814.25
2023-01-17T11:36:27.445Z,98806.19
2023-01-17T11:39:02.881Z,98813.56
2023-01-17T11:41:37.864Z,98808.53
2023-01-17T11:44:20.262Z,98806.63
2023-01-17T11:46:46.797Z,98807.06
2023-01-17T11:49:25.006Z,98805.03
2023-01-17T11:51:56.156Z,98810.03
2023-01-17T11:54:33.543Z,98804.72
2023-01-17T11:57:01.563Z,98804.59
2023-01-17T11:59:34.616Z,98802.53
2023-01-17T12:02:32.017Z,98811.44
2023-01-17T12:05:09.438Z,98800.84
2023-01-17T12:07:45.262Z,98804.00
2023-01-17T12:10:38.837Z,98805.56
2023-01-17T12:13:41.355Z,98808.00
2023-01-17T12:16:39.964Z,98798.91
2023-01-17T12:19:28.570Z,98799.22
2023-01-17T12:22:19.008Z,98797.72
2023-01-17T12:24:58.464Z,98797.84
2023-01-17T12:27:42.626Z,98792.84
2023-01-17T12:30:39.119Z,98800.66
2023-01-17T12:33:19.170Z,98792.94
2023-01-17T12:35:53.481Z,98795.41
2023-01-17T12:38:39.719Z,98788.47
2023-01-17T12:41:13.306Z,98777.44
2023-01-17T12:43:41.461Z,98782.50
2023-01-17T12:46:13.236Z,98776.38
2023-01-17T12:48:39.679Z,98776.38
2023-01-17T12:51:20.293Z,98775.47
2023-01-17T12:54:06.915Z,98777.13
2023-01-17T12:56:47.520Z,98778.03
2023-01-17T12:59:31.111Z,98783.19
2023-01-17T13:02:01.374Z,98784.00
2023-01-17T13:04:41.949Z,98791.63
2023-01-17T13:07:28.866Z,98789.06
2023-01-17T13:10:03.173Z,98777.94
2023-01-17T13:12:32.527Z,98777.94
2023-01-17T13:15:02.072Z,98786.41
2023-01-17T13:17:37.433Z,98788.00
2023-01-17T13:20:34.844Z,98792.22
2023-01-17T13:23:12.592Z,98780.19
2023-01-17T13:25:48.148Z,98782.69
2023-01-17T13:28:40.098Z,98780.94
2023-01-17T13:31:21.695Z,98788.81
2023-01-17T13:34:04.726Z,98785.44
2023-01-17T13:36:54.468Z,98784.44
2023-01-17T13:39:39.375Z,98785.19
2023-01-17T13:42:21.608Z,98788.81
2023-01-17T13:44:48.489Z,98782.00
2023-01-17T13:47:17.933Z,98783.75
2023-01-17T13:49:49.418Z,98786.31
2023-01-17T13:52:18.996Z,98789.81
2023-01-17T13:54:45.785Z,98794.09
2023-01-17T13:57:36.200Z,98799.16
2023-01-17T14:00:21.851Z,98800.91
2023-01-17T14:02:49.623Z,98798.34
2023-01-17T14:05:24.026Z,98799.34
2023-01-17T14:08:03.933Z,98805.31
2023-01-17T14:10:54.565Z,98805.38
2023-01-17T14:13:32.570Z,98811.44
2023-01-17T14:16:00.135Z,98813.31
2023-01-17T14:18:41.418Z,98811.50
2023-01-17T14:21:31.530Z,98813.13
2023-01-17T14:24:04.942Z,98818.28
2023-01-17T14:26:31.431Z,98817.47
2023-01-17T14:29:18.744Z,98809.00
2023-01-17T14:31:45.443Z,98815.94
2023-01-17T14:34:13.738Z,98812.56
2023-01-17T14:36:40.485Z,98808.25
2023-01-17T14:39:21.121Z,98809.91
2023-01-17T14:41:47.915Z,98816.19
2023-01-17T14:44:14.758Z,98815.38
2023-01-17T14:46:48.623Z,98818.81
2023-01-17T14:49:25.366Z,98812.94
2023-01-17T14:52:02.691Z,98814.75
2023-01-17T14:54:29.138Z,98821.03
2023-01-17T14:57:22.632Z,98816.97
2023-01-17T14:59:49.107Z,98817.28
2023-01-17T15:02:18.522Z,98815.00
2023-01-17T15:04:53.416Z,98822.03
2023-01-17T15:07:20.343Z,98826.41
2023-01-17T15:09:47.111Z,98832.53
2023-01-17T15:12:14.501Z,98838.81
2023-01-17T15:14:44.729Z,98830.41
2023-01-17T15:17:18.781Z,98836.53
2023-01-17T15:19:49.922Z,98830.78
2023-01-17T15:22:18.408Z,98838.69
2023-01-17T15:24:46.442Z,98837.34
2023-01-17T15:27:15.076Z,98845.16
2023-01-17T15:29:42.222Z,98836.81
2023-01-17T15:32:18.894Z,98848.03
2023-01-17T15:34:48.026Z,98848.19
2023-01-17T15:37:23.030Z,98850.06
2023-01-17T15:39:49.595Z,98851.09
2023-01-17T15:42:26.041Z,98851.25
2023-01-17T15:45:00.847Z,98850.56
2023-01-17T15:47:41.390Z,98845.59
2023-01-17T15:50:20.284Z,98847.50
2023-01-17T15:53:01.584Z,98846.09
2023-01-17T15:55:35.765Z,98840.19
2023-01-17T15:58:03.091Z,98848.94
2023-01-17T16:00:38.336Z,98854.19
2023-01-17T16:03:36.291Z,98862.00
2023-01-17T16:06:34.400Z,98852.03
2023-01-17T16:08:59.022Z,98856.56
2023-01-17T16:11:25.451Z,98850.72
2023-01-17T16:13:52.605Z,98849.13
2023-01-17T16:16:23.773Z,98845.88
2023-01-17T16:18:58.816Z,98849.47
2023-01-17T16:21:28.078Z,98848.75
2023-01-17T16:23:54.619Z,98849.78
2023-01-17T16:26:21.432Z,98858.47
2023-01-17T16:28:48.733Z,98862.00
2023-01-17T16:31:15.646Z,98856.16
2023-01-17T16:33:42.440Z,98865.56
2023-01-17T16:36:14.795Z,98870.84
2023-01-17T16:38:42.290Z,98863.28
2023-01-17T16:41:08.956Z,98869.38
2023-01-17T16:43:35.420Z,98864.47
2023-01-17T16:46:01.861Z,98871.38
2023-01-17T16:48:28.282Z,98874.97
2023-01-17T16:50:54.757Z,98865.69
2023-01-17T16:53:27.539Z,98870.09
2023-01-17T16:55:59.304Z,98869.28
2023-01-17T16:58:25.984Z,98879.63
2023-01-17T17:00:52.483Z,98877.25
2023-01-17T17:03:20.832Z,98881.69
2023-01-17T17:05:58.747Z,98887.69
2023-01-17T17:08:25.802Z,98890.47
2023-01-17T17:10:52.277Z,98897.41
2023-01-17T17:13:18.646Z,98900.03
2023-01-17T17:15:45.363Z,98902.69
2023-01-17T17:18:17.059Z,98908.66
2023-01-17T17:20:44.554Z,98906.25
2023-01-17T17:23:11.373Z,98907.22
2023-01-17T17:25:37.931Z,98903.13
2023-01-17T17:28:05.672Z,98911.66
2023-01-17T17:30:33.312Z,98906.59
2023-01-17T17:32:59.874Z,98918.63
2023-01-17T17:35:26.812Z,98910.22
2023-01-17T17:37:53.622Z,98915.38
2023-01-17T17:40:20.188Z,98915.50
2023-01-17T17:42:46.587Z,98925.72
2023-01-17T17:45:12.970Z,98923.16
2023-01-17T17:47:39.367Z,98925.66
2023-01-17T17:50:06.332Z,98933.28
2023-01-17T17:52:32.839Z,98935.84
2023-01-17T17:54:59.349Z,98940.81
2023-01-17T17:57:25.806Z,98940.81
2023-01-17T17:59:55.946Z,98944.28
2023-01-17T18:02:22.569Z,98939.28
2023-01-17T18:04:49.011Z,98947.97
2023-01-17T18:07:15.551Z,98956.59
2023-01-17T18:09:41.923Z,98958.38
2023-01-17T18:12:08.447Z,98959.34
2023-01-17T18:14:34.891Z,98965.38
2023-01-17T18:17:01.299Z,98968.03
2023-01-17T18:19:27.761Z,98969.81
2023-01-17T18:21:54.551Z,98968.22
2023-01-17T18:24:23.704Z,98974.19
2023-01-17T18:26:57.469Z,98977.63
2023-01-17T18:29:25.854Z,98981.19
2023-01-17T18:31:53.419Z,98990.63
2023-01-17T18:34:24.035Z,98999.19
2023-01-17T18:36:51.766Z,99006.03
2023-01-17T18:39:24.443Z,99002.50
2023-01-17T18:41:51.710Z,99006.81
2023-01-17T18:44:22.384Z,99001.75
2023-01-17T18:46:51.135Z,99001.81
2023-01-17T18:49:19.103Z,99012.91
2023-01-17T18:51:50.214Z,99012.16
2023-01-17T18:54:17.960Z,99012.19
2023-01-17T18:56:44.646Z,99012.28
2023-01-17T18:59:18.048Z,99013.16
2023-01-17T19:01:44.728Z,99019.22
2023-01-17T19:04:13.497Z,99025.22
2023-01-17T19:06:42.817Z,99027.00
2023-01-17T19:09:11.849Z,99027.06
2023-01-17T19:11:38.662Z,99029.66
2023-01-17T19:14:06.345Z,99024.59
2023-01-17T19:16:36.555Z,99031.44
2023-01-17T19:19:05.590Z,99030.59
2023-01-17T19:21:32.482Z,99039.09
2023-01-17T19:23:59.659Z,99040.88
2023-01-17T19:26:27.497Z,99039.22
2023-01-17T19:29:05.302Z,99034.16
2023-01-17T19:31:35.667Z,99037.59
2023-01-17T19:34:02.374Z,99042.69
2023-01-17T19:36:33.654Z,99046.91
2023-01-17T19:39:05.567Z,99052.78
2023-01-17T19:41:35.048Z,99049.50
2023-01-17T19:44:04.237Z,99041.84
2023-01-17T19:46:32.289Z,99047.06
2023-01-17T19:48:59.535Z,99047.97
2023-01-17T19:51:26.903Z,99052.28
2023-01-17T19:53:56.503Z,99054.03
2023-01-17T19:56:24.874Z,99057.50
2023-01-17T19:58:52.116Z,99053.25
2023-01-17T20:01:21.788Z,99053.25
2023-01-17T20:03:51.161Z,99052.44
2023-01-17T20:06:21.116Z,99063.53
2023-01-17T20:08:47.681Z,99050.84
2023-01-17T20:11:18.413Z,99056.78
2023-01-17T20:13:49.088Z,99053.31
2023-01-17T20:16:17.710Z,99056.66
2023-01-17T20:18:44.794Z,99055.81
2023-01-17T20:21:17.262Z,99054.09
2023-01-17T20:23:46.741Z,99057.59
2023-01-17T20:26:15.223Z,99055.00
2023-01-17T20:28:43.687Z,99055.88
2023-01-17T20:31:12.951Z,99055.81
2023-01-17T20:33:40.701Z,99054.09
2023-01-17T20:36:11.119Z,99054.88
2023-01-17T20:38:45.131Z,99055.72
2023-01-17T20:41:24.528Z,99056.56
2023-01-17T20:43:53.916Z,99060.75
2023-01-17T20:46:22.841Z,99063.28
2023-01-17T20:48:51.331Z,99059.91
2023-01-17T20:51:19.765Z,99060.75
2023-01-17T20:53:50.272Z,99061.63
2023-01-17T20:56:17.219Z,99064.19
2023-01-17T20:58:43.917Z,99071.00
2023-01-17T21:01:12.580Z,99065.06
2023-01-17T21:03:39.900Z,99065.22
2023-01-17T21:06:09.474Z,99071.16
2023-01-17T21:08:38.535Z,99068.66
2023-01-17T21:11:06.005Z,99068.72
2023-01-17T21:13:32.887Z,99067.97
2023-01-17T21:15:59.908Z,99069.59
2023-01-17T21:18:28.178Z,99072.09
2023-01-17T21:20:54.684Z,99085.75
2023-01-17T21:23:23.414Z,99079.78
2023-01-17T21:25:55.527Z,99079.81
2023-01-17T21:28:26.273Z,99079.00
2023-01-17T21:30:53.790Z,99084.97
2023-01-17T21:33:22.352Z,99079.94
2023-01-17T21:35:48.874Z,99083.38
2023-01-17T21:38:15.617Z,99079.09
2023-01-17T21:40:43.666Z,99076.56
2023-01-17T21:43:11.295Z,99074.03
2023-01-17T21:45:38.963Z,99074.88
2023-01-17T21:48:12.050Z,99080.88
2023-01-17T21:50:38.682Z,99085.09
2023-01-17T21:53:05.110Z,99085.13
2023-01-17T21:55:49.998Z,99075.00
2023-01-17T21:58:36.393Z,99081.00
2023-01-17T22:01:19.032Z,99074.28
2023-01-17T22:03:49.269Z,99081.97
2023-01-17T22:06:16.178Z,99089.75
2023-01-17T22:08:43.273Z,99077.84
2023-01-17T22:11:13.335Z,99071.16
2023-01-17T22:13:41.919Z,99081.47
2023-01-17T22:16:11.674Z,99082.31
2023-01-17T22:18:39.085Z,99085.81
2023-01-17T22:21:28.105Z,99095.31
2023-01-17T22:23:59.374Z,99094.63
2023-01-17T22:26:30.764Z,99098.13
2023-01-17T22:29:00.567Z,99105.00
2023-01-17T22:31:28.229Z,99101.72
2023-01-17T22:34:01.050Z,99111.19
2023-01-17T22:36:28.437Z,99110.47
2023-01-17T22:38:54.867Z,99119.81
2023-01-17T22:41:24.052Z,99118.19
2023-01-17T22:43:56.029Z,99114.06
2023-01-17T22:46:27.031Z,99122.63
2023-01-17T22:48:55.748Z,99114.91
2023-01-17T22:51:23.693Z,99117.41
2023-01-17T22:53:52.814Z,99119.09
2023-01-17T22:56:23.057Z,99122.47
2023-01-17T22:58:50.377Z,99121.69
2023-01-17T23:01:25.979Z,99125.97
2023-01-17T23:03:55.464Z,99122.63
2023-01-17T23:06:30.488Z,99120.94
2023-01-17T23:08:59.749Z,99124.44
2023-01-17T23:11:39.330Z,99120.22
2023-01-17T23:14:14.834Z,99122.81
2023-01-17T23:17:06.046Z,99116.03
2023-01-17T23:19:47.863Z,99119.44
2023-01-17T23:22:17.498Z,99116.00
2023-01-17T23:24:52.917Z,99119.44
2023-01-17T23:28:05.149Z,99119.44
2023-01-17T23:30:40.490Z,99114.41
2023-01-17T23:33:09.044Z,99112.84
2023-01-17T23:35:41.719Z,99124.03
2023-01-17T23:38:33.897Z,99118.09
2023-01-17T23:41:34.180Z,99122.44
2023-01-17T23:44:00.568Z,99110.59
2023-01-17T23:46:27.357Z,99110.59
2023-01-17T23:48:55.001Z,99120.84
2023-01-17T23:51:21.680Z,99116.63
2023-01-17T23:53:48.174Z,99120.88
2023-01-17T23:56:20.380Z,99113.22
2023-01-17T23:58:46.980Z,99120.03
